Hlavní strana
METAR-TAF:

METAR-TAF

Letiště :

Glasgow, Montana, Spojené státy americké

zeměpisná šířka: 48-12-50N, zeměpisná délka: 106-37-17W, výška: 699 m

Aktuální stav počasí

Zpráva byla vytvořena před 30 minutami, v 13:53 UTC
Jižní vítr 3 kt
Teplota 13°C
Vlhkost vzduchu 51%
Tlak 1025 hPa
Viditelnost: 16.1 km
Polojasno ve výšce 9000 ft

METAR: KGGW 201353Z AUTO 19003KT 10SM SCT090 13/03 A3026 RMK AO2 SLP247 T01280028

Čas: 08:23 (14:23 UTC)

Předpověď počasí

Zpráva byla vytvořena před 3 hodinami a 3 minutami, v 11:20 UTC
Předpověď platná od 20 v 12 UTC do 21 v 12 UTC
vítr z různých směrů 6 kt
Viditelnost: 10 km
Oblačno až skoro zataženo ve výšce 9000 ft
Od 21 v 0100 UTC
vítr z různých směrů 5 kt
Viditelnost: 10 km
Oblačno až skoro zataženo ve výšce 10000 ft
Od 21 v 0400 UTC
vítr z různých směrů 4 kt
Viditelnost: 10 km
Polojasno ve výšce 9000 ft

TAF: KGGW 201120Z 2012/2112 VRB06KT P6SM BKN090 FM210100 VRB05KT P6SM BKN100 FM210400 VRB04KT P6SM SCT090

Stav a předpovědi počasí z více než 4 000 letišť (zprávy METAR a TAF).

Červené a žluté tečky na mapě představují dostupné meteorologické stanice.

Když kurzor umístíte na tečku, zobrazí se název stanice.

Pak kliknutím zobrazíte stav a předpověď počasí.

Chcete-li změnit mapu, kliknutím na zelené tlačítko se znaménkem +mapu přiblížíte, kliknutím na zelené tlačítko se znaménkem – mapu oddálíte a kliknutím na zelené šipky přejdete na sousední mapy.


METAR-TAF: